Time;durP1;ratioP1;P1;durP2;ratioP2;P2;SDS_P1;SDS_P2;PMS_P1;PMS_P2;Temp;Humidity;BMP_temperature;BMP_pressure;BME280_temperature;BME280_humidity;BME280_pressure;Samples;Min_cycle;Max_cycle;Signal;HPM_P1;HPM_P2
2021/09/16 00:00:52;;;;;;;3.60;2.72;;;;;;;24.92;59.71;100813.07;1768749;79;21205;-44
2021/09/16 00:03:19;;;;;;;4.00;2.87;;;;;;;24.91;59.74;100806.69;1773324;79;21944;-45
2021/09/16 00:05:45;;;;;;;3.67;3.00;;;;;;;24.93;59.68;100806.36;1749706;80;21067;-44
2021/09/16 00:08:12;;;;;;;3.60;3.00;;;;;;;24.93;59.65;100807.17;1741477;81;20921;-43
2021/09/16 00:10:37;;;;;;;3.92;2.75;;;;;;;24.93;59.61;100807.17;1747282;80;21561;-44
2021/09/16 00:13:03;;;;;;;5.10;3.20;;;;;;;24.92;59.60;100809.72;1747973;81;22057;-44
2021/09/16 00:15:30;;;;;;;4.75;3.30;;;;;;;24.92;59.56;100810.29;1747924;80;20941;-44
2021/09/16 00:17:56;;;;;;;4.42;3.02;;;;;;;24.91;59.55;100812.83;1746841;81;21027;-44
2021/09/16 00:20:22;;;;;;;5.78;3.47;;;;;;;24.89;59.51;100813.20;1745862;80;21106;-43
2021/09/16 00:22:48;;;;;;;4.45;3.42;;;;;;;24.87;59.52;100809.12;1748258;80;21105;-45
2021/09/16 00:25:14;;;;;;;4.40;3.30;;;;;;;24.85;59.52;100809.48;1748231;80;21545;-43
2021/09/16 00:27:40;;;;;;;3.87;2.72;;;;;;;24.84;59.53;100809.79;1747974;80;21067;-44
2021/09/16 00:30:09;;;;;;;3.83;2.85;;;;;;;24.85;59.55;100809.48;1745518;80;21050;-45
2021/09/16 00:32:37;;;;;;;3.50;2.77;;;;;;;24.86;59.62;100810.30;1746146;80;21471;-43
2021/09/16 00:35:05;;;;;;;4.12;3.00;;;;;;;24.88;59.73;100814.35;1749937;80;21023;-43
2021/09/16 00:37:31;;;;;;;3.40;2.80;;;;;;;24.89;59.83;100817.38;1746702;80;21600;-43
2021/09/16 00:39:57;;;;;;;4.87;3.15;;;;;;;24.90;59.85;100812.63;1745704;80;20860;-43
2021/09/16 00:42:23;;;;;;;3.98;3.20;;;;;;;24.92;59.87;100814.47;1749281;80;21063;-45
2021/09/16 00:44:49;;;;;;;3.83;2.80;;;;;;;24.91;59.85;100814.22;1747973;81;20955;-44
2021/09/16 00:47:16;;;;;;;4.67;3.15;;;;;;;24.92;59.81;100810.29;1716698;80;21074;-45
2021/09/16 00:49:45;;;;;;;4.92;3.30;;;;;;;24.93;59.76;100814.13;1750562;80;21255;-44
2021/09/16 00:52:12;;;;;;;6.05;3.65;;;;;;;24.92;59.74;100810.29;1749511;80;21050;-43
2021/09/16 00:54:41;;;;;;;4.53;3.50;;;;;;;24.91;59.68;100811.44;1749642;80;21031;-44
2021/09/16 00:57:07;;;;;;;4.05;2.70;;;;;;;24.90;59.67;100807.88;1747798;79;21140;-44
2021/09/16 00:59:34;;;;;;;5.90;3.60;;;;;;;24.88;59.66;100808.78;1748728;80;20996;-44
2021/09/16 01:02:01;;;;;;;4.87;3.35;;;;;;;24.86;59.64;100800.56;1739684;81;23281;-46
2021/09/16 01:04:28;;;;;;;4.30;3.08;;;;;;;24.84;59.64;100801.44;1750286;79;21563;-43
2021/09/16 01:06:54;;;;;;;3.47;2.55;;;;;;;24.81;59.64;100794.61;1768972;78;21092;-43
2021/09/16 01:09:20;;;;;;;4.50;2.85;;;;;;;24.83;59.68;100794.25;1781252;78;21101;-43
2021/09/16 01:11:46;;;;;;;3.30;2.45;;;;;;;24.84;59.74;100794.48;1777521;78;21103;-44
2021/09/16 01:14:22;;;;;;;3.47;2.87;;;;;;;24.86;59.84;100797.20;1772959;78;22281;-45
2021/09/16 01:16:48;;;;;;;3.80;2.67;;;;;;;24.87;59.94;100795.20;1776713;78;22234;-45
2021/09/16 01:19:14;;;;;;;4.62;2.87;;;;;;;24.87;59.98;100792.42;1781698;78;21110;-46
2021/09/16 01:21:40;;;;;;;4.60;3.15;;;;;;;24.88;59.97;100797.66;1766685;80;21050;-44
2021/09/16 01:24:07;;;;;;;4.37;3.37;;;;;;;24.90;59.94;100796.74;1767711;79;21714;-44
2021/09/16 01:26:33;;;;;;;5.45;2.90;;;;;;;24.91;59.91;100803.09;1770374;80;21952;-45
2021/09/16 01:28:59;;;;;;;4.15;3.08;;;;;;;24.90;59.86;100801.48;1769847;80;21053;-45
2021/09/16 01:31:36;;;;;;;4.08;3.47;;;;;;;24.89;59.85;100802.06;1770573;80;21543;-44
2021/09/16 01:34:08;;;;;;;5.00;3.47;;;;;;;24.89;59.79;100797.08;1767281;80;21853;-47
2021/09/16 01:36:35;;;;;;;4.95;2.70;;;;;;;24.87;59.75;100788.25;1769211;79;21071;-43
2021/09/16 01:39:04;;;;;;;3.85;3.12;;;;;;;24.85;59.76;100787.77;1745508;81;21263;-45
2021/09/16 01:41:30;;;;;;;4.00;3.30;;;;;;;24.83;59.77;100790.06;1774865;78;21087;-43
2021/09/16 01:43:57;;;;;;;4.58;3.08;;;;;;;24.80;59.76;100787.41;1768147;80;21049;-45
2021/09/16 01:46:22;;;;;;;3.42;2.80;;;;;;;24.78;59.75;100779.98;1771928;78;21120;-43
2021/09/16 01:48:49;;;;;;;3.08;2.62;;;;;;;24.79;59.78;100783.58;1766949;78;21118;-45
2021/09/16 01:51:15;;;;;;;3.70;2.58;;;;;;;24.81;59.85;100786.84;1770608;78;21268;-44
2021/09/16 01:53:41;;;;;;;3.95;2.90;;;;;;;24.82;59.97;100781.52;1763319;78;21047;-43
2021/09/16 01:56:07;;;;;;;3.77;2.77;;;;;;;24.83;60.09;100787.28;1769930;80;21041;-46
2021/09/16 01:58:33;;;;;;;3.55;2.95;;;;;;;24.84;60.13;100780.57;1765265;78;21088;-44
2021/09/16 02:00:59;;;;;;;3.70;3.00;;;;;;;24.85;60.13;100780.81;1770118;78;21009;-43
2021/09/16 02:03:25;;;;;;;4.15;3.15;;;;;;;24.85;60.10;100784.98;1771876;78;21156;-42
2021/09/16 02:05:51;;;;;;;3.67;3.00;;;;;;;24.87;60.05;100784.08;1772103;78;21174;-44
2021/09/16 02:08:18;;;;;;;3.98;2.95;;;;;;;24.86;60.00;100787.47;1774723;79;21010;-42
2021/09/16 02:10:44;;;;;;;4.55;3.22;;;;;;;24.85;59.99;100785.83;1763968;79;21227;-44
2021/09/16 02:13:10;;;;;;;5.05;3.35;;;;;;;24.85;59.93;100794.18;1767109;80;21044;-43
2021/09/16 02:15:36;;;;;;;4.15;3.30;;;;;;;24.83;59.89;100790.89;1771021;79;21535;-45
2021/09/16 02:18:02;;;;;;;3.70;3.10;;;;;;;24.82;59.88;100792.64;1748834;79;20981;-45
2021/09/16 02:20:30;;;;;;;5.08;3.50;;;;;;;24.81;59.86;100789.05;1771140;79;21073;-53
2021/09/16 02:22:57;;;;;;;3.67;3.00;;;;;;;24.79;59.86;100787.75;1773140;79;21124;-44
2021/09/16 02:25:23;;;;;;;3.00;2.60;;;;;;;24.76;59.87;100784.28;1778246;80;21132;-44
2021/09/16 02:27:51;;;;;;;3.92;2.60;;;;;;;24.77;59.86;100793.68;1770234;79;21072;-44
2021/09/16 02:30:21;;;;;;;3.17;2.60;;;;;;;24.78;59.94;100788.33;1770583;79;21044;-43
2021/09/16 02:32:47;;;;;;;3.62;2.90;;;;;;;24.79;60.06;100786.36;1785733;78;21061;-44
2021/09/16 02:35:15;;;;;;;3.72;3.08;;;;;;;24.80;60.16;100786.02;1734135;80;21143;-44
2021/09/16 02:37:41;;;;;;;3.72;2.83;;;;;;;24.81;60.20;100784.05;1768134;80;21064;-43
2021/09/16 02:40:10;;;;;;;4.30;2.98;;;;;;;24.82;60.19;100784.30;1745331;80;21543;-47
2021/09/16 02:42:37;;;;;;;3.42;2.67;;;;;;;24.83;60.15;100781.14;1776571;80;21144;-44
2021/09/16 02:45:05;;;;;;;3.60;3.02;;;;;;;24.83;60.10;100783.11;1773152;79;21089;-44
2021/09/16 02:47:31;;;;;;;4.35;2.83;;;;;;;24.82;60.04;100780.94;1774836;80;21511;-44
2021/09/16 02:49:57;;;;;;;4.03;3.08;;;;;;;24.83;60.01;100781.72;1780656;80;21046;-44
2021/09/16 02:52:23;;;;;;;4.28;2.98;;;;;;;24.81;59.96;100784.88;1778236;80;21153;-47
2021/09/16 02:54:49;;;;;;;4.35;3.33;;;;;;;24.80;59.95;100782.42;1775330;80;21612;-42
2021/09/16 02:57:16;;;;;;;4.33;3.10;;;;;;;24.78;59.91;100781.37;1734710;80;21059;-42
2021/09/16 02:59:42;;;;;;;4.75;3.10;;;;;;;24.78;59.88;100779.19;1775048;80;21591;-42
2021/09/16 03:02:08;;;;;;;4.20;3.30;;;;;;;24.75;59.89;100784.03;1775587;80;21102;-44
2021/09/16 03:04:34;;;;;;;4.05;2.85;;;;;;;24.72;59.90;100781.38;1773763;79;21537;-43
2021/09/16 03:07:00;;;;;;;4.00;2.87;;;;;;;24.73;59.90;100782.20;1768455;79;21070;-42
2021/09/16 03:09:27;;;;;;;3.55;2.60;;;;;;;24.74;59.96;100789.39;1766933;80;21094;-43
2021/09/16 03:11:53;;;;;;;3.47;2.55;;;;;;;24.76;60.08;100783.70;1768617;80;21694;-43
2021/09/16 03:14:19;;;;;;;3.45;2.65;;;;;;;24.77;60.18;100792.87;1769572;79;20918;-44
2021/09/16 03:16:46;;;;;;;3.55;2.90;;;;;;;24.78;60.21;100793.11;1770157;80;21452;-43
2021/09/16 03:19:12;;;;;;;3.72;2.75;;;;;;;24.78;60.20;100788.33;1765938;80;21070;-43
2021/09/16 03:21:38;;;;;;;4.03;2.77;;;;;;;24.80;60.15;100794.38;1772016;80;21058;-44
2021/09/16 03:24:05;;;;;;;3.27;2.67;;;;;;;24.80;60.09;100795.77;1769932;80;20878;-44
2021/09/16 03:26:31;;;;;;;3.70;3.00;;;;;;;24.81;60.05;100804.92;1772642;80;21545;-44
2021/09/16 03:28:57;;;;;;;4.70;3.30;;;;;;;24.79;60.01;100800.27;1764691;80;21309;-42
2021/09/16 03:31:23;;;;;;;4.37;3.00;;;;;;;24.78;59.94;100795.28;1767784;80;21107;-43
2021/09/16 03:33:49;;;;;;;4.17;3.05;;;;;;;24.77;59.91;100794.26;1766662;80;21128;-44
2021/09/16 03:36:15;;;;;;;3.55;2.92;;;;;;;24.75;59.89;100800.73;1771788;80;20901;-44
2021/09/16 03:38:42;;;;;;;4.22;3.27;;;;;;;24.72;59.90;100798.65;1766122;80;21494;-44
2021/09/16 03:41:08;;;;;;;3.98;2.90;;;;;;;24.70;59.88;100796.20;1768234;80;21060;-47
2021/09/16 03:43:34;;;;;;;4.53;3.05;;;;;;;24.69;59.87;100796.56;1765485;80;20975;-43
2021/09/16 03:46:00;;;;;;;4.10;2.50;;;;;;;24.66;59.89;100794.45;1765469;79;21481;-43
2021/09/16 03:48:26;;;;;;;3.00;2.62;;;;;;;24.67;59.90;100804.44;1765348;79;21091;-43
2021/09/16 03:50:52;;;;;;;3.37;2.67;;;;;;;24.69;59.98;100805.73;1771394;80;20889;-43
2021/09/16 03:53:18;;;;;;;3.40;2.55;;;;;;;24.70;60.08;100802.34;1769028;80;21093;-44
2021/09/16 03:55:44;;;;;;;6.17;3.30;;;;;;;24.71;60.20;100801.19;1764979;80;21048;-44
2021/09/16 03:58:10;;;;;;;4.53;2.67;;;;;;;24.72;60.23;100801.43;1770575;80;21033;-42
2021/09/16 04:00:37;;;;;;;3.40;2.70;;;;;;;24.73;60.22;100806.66;1766275;80;21067;-42
2021/09/16 04:03:07;;;;;;;4.05;2.90;;;;;;;24.73;60.18;100801.09;1763262;80;21100;-44
2021/09/16 04:05:34;;;;;;;6.67;3.30;;;;;;;24.75;60.15;100809.08;1770898;80;21157;-43
2021/09/16 04:08:01;;;;;;;44.95;12.63;;;;;;;24.74;60.09;100813.05;1762754;81;21558;-45
2021/09/16 04:10:27;;;;;;;173.87;42.95;;;;;;;24.73;60.05;100817.79;1770009;80;21565;-45
2021/09/16 04:12:53;;;;;;;40.48;11.90;;;;;;;24.73;60.05;100813.62;1755845;80;21078;-45
2021/09/16 04:15:19;;;;;;;27.75;8.53;;;;;;;24.71;60.04;100817.88;1751781;80;20903;-41
2021/09/16 04:17:45;;;;;;;411.28;152.10;;;;;;;24.70;60.05;100818.45;1746709;80;21273;-43
2021/09/16 04:20:12;;;;;;;301.65;109.85;;;;;;;24.69;60.06;100817.44;1765549;79;20892;-43
2021/09/16 04:22:38;;;;;;;74.20;21.55;;;;;;;24.68;60.06;100817.19;1759365;79;21064;-42
2021/09/16 04:25:06;;;;;;;35.92;9.75;;;;;;;24.68;60.07;100819.40;1748414;81;21463;-41
2021/09/16 04:27:32;;;;;;;317.43;100.95;;;;;;;24.70;60.16;100819.03;1751574;81;21150;-42
2021/09/16 04:29:58;;;;;;;226.52;61.45;;;;;;;24.72;60.26;100820.91;1740422;81;22047;-43
2021/09/16 04:32:24;;;;;;;77.05;20.97;;;;;;;24.73;60.37;100826.71;1744668;80;21032;-42
2021/09/16 04:34:50;;;;;;;588.27;254.40;;;;;;;24.74;60.41;100823.56;1750086;80;22172;-44
2021/09/16 04:37:17;;;;;;;582.38;213.62;;;;;;;24.76;60.40;100827.41;1756918;79;21089;-43
2021/09/16 04:39:44;;;;;;;277.45;75.40;;;;;;;24.77;60.38;100817.91;1768305;80;21114;-44
2021/09/16 04:42:10;;;;;;;122.05;31.48;;;;;;;24.78;60.34;100816.15;1767981;79;21023;-44
2021/09/16 04:44:36;;;;;;;66.15;21.77;;;;;;;24.78;60.28;100811.98;1764590;80;21446;-43
2021/09/16 04:47:03;;;;;;;147.72;35.63;;;;;;;24.78;60.25;100811.19;1767676;79;21039;-42
2021/09/16 04:49:29;;;;;;;25.57;7.75;;;;;;;24.77;60.20;100812.34;1761526;79;21079;-49
2021/09/16 04:51:55;;;;;;;136.32;29.50;;;;;;;24.77;60.18;100819.30;1768232;80;20912;-43
2021/09/16 04:54:22;;;;;;;80.53;21.37;;;;;;;24.75;60.15;100815.45;1763340;81;21549;-47
2021/09/16 04:56:48;;;;;;;106.43;24.90;;;;;;;24.74;60.15;100821.39;1755665;79;21065;-46
2021/09/16 04:59:14;;;;;;;190.77;47.93;;;;;;;24.72;60.15;100827.86;1763581;79;21048;-45
2021/09/16 05:01:40;;;;;;;100.05;25.40;;;;;;;24.73;60.15;100833.67;1761879;79;21649;-45
2021/09/16 05:04:06;;;;;;;96.02;24.10;;;;;;;24.74;60.23;100834.69;1762622;80;20913;-44
2021/09/16 05:06:32;;;;;;;232.03;65.22;;;;;;;24.76;60.31;100832.97;1761408;79;21175;-44
2021/09/16 05:08:58;;;;;;;55.67;16.52;;;;;;;24.78;60.41;100834.84;1765648;79;21520;-45
2021/09/16 05:11:24;;;;;;;49.13;13.38;;;;;;;24.78;60.42;100839.80;1765875;79;21079;-44
2021/09/16 05:13:50;;;;;;;34.53;9.18;;;;;;;24.78;60.44;100831.45;1765965;79;21061;-47
2021/09/16 05:16:17;;;;;;;44.98;12.37;;;;;;;24.81;60.42;100838.31;1766098;79;21065;-46
2021/09/16 05:18:43;;;;;;;37.00;10.28;;;;;;;24.82;60.37;100841.34;1762483;79;21091;-46
2021/09/16 05:21:09;;;;;;;33.50;9.55;;;;;;;24.82;60.33;100839.95;1792862;78;21130;-44
2021/09/16 05:23:35;;;;;;;46.90;13.43;;;;;;;24.82;60.28;100833.81;1788814;78;21111;-49
2021/09/16 05:26:02;;;;;;;144.20;41.08;;;;;;;24.81;60.25;100838.31;1752394;80;21038;-48
2021/09/16 05:28:28;;;;;;;186.25;50.55;;;;;;;24.81;60.23;100838.31;1782381;78;21660;-45
2021/09/16 05:30:54;;;;;;;46.88;14.05;;;;;;;24.79;60.23;100838.66;1773995;78;22201;-45
2021/09/16 05:33:20;;;;;;;57.40;15.30;;;;;;;24.78;60.21;100836.23;1780281;79;20984;-45
2021/09/16 05:35:46;;;;;;;65.47;17.75;;;;;;;24.77;60.19;100839.59;1777335;79;21009;-46
2021/09/16 05:38:12;;;;;;;60.63;14.65;;;;;;;24.77;60.18;100834.60;1775149;80;21027;-47
2021/09/16 05:40:38;;;;;;;30.27;7.50;;;;;;;24.79;60.25;100831.70;1772155;78;21016;-46
2021/09/16 05:43:04;;;;;;;88.30;22.77;;;;;;;24.80;60.33;100829.16;1775289;78;22063;-46
2021/09/16 05:45:31;;;;;;;29.87;7.55;;;;;;;24.82;60.42;100842.73;1773091;80;21057;-44
2021/09/16 05:47:57;;;;;;;218.48;57.90;;;;;;;24.83;60.49;100830.42;1778714;79;21494;-44
2021/09/16 05:50:23;;;;;;;478.50;147.70;;;;;;;24.85;60.49;100835.08;1778952;79;21117;-49
2021/09/16 05:52:49;;;;;;;299.95;78.90;;;;;;;24.86;60.46;100840.34;1776410;80;21065;-47
2021/09/16 05:55:15;;;;;;;225.18;60.03;;;;;;;24.88;60.46;100844.96;1757368;80;21281;-50
2021/09/16 05:57:41;;;;;;;55.92;15.78;;;;;;;24.88;60.46;100846.36;1757261;80;21654;-50
2021/09/16 06:00:08;;;;;;;57.55;15.85;;;;;;;24.89;60.53;100852.16;1782105;80;20897;-48
2021/09/16 06:02:35;;;;;;;19.37;7.08;;;;;;;24.90;60.51;100846.02;1784023;78;21138;-47
2021/09/16 06:05:01;;;;;;;28.27;11.30;;;;;;;24.89;60.52;100852.16;1780912;80;21029;-50
2021/09/16 06:07:27;;;;;;;16.57;7.92;;;;;;;24.88;60.53;100857.48;1780246;80;21099;-47
2021/09/16 06:09:53;;;;;;;11.33;5.22;;;;;;;24.88;60.58;100855.28;1780456;80;21590;-51
2021/09/16 06:12:19;;;;;;;14.45;6.12;;;;;;;24.90;60.63;100850.20;1780326;80;21005;-50
2021/09/16 06:14:46;;;;;;;14.73;5.42;;;;;;;24.91;60.72;100847.05;1774667;80;21037;-48
2021/09/16 06:17:12;;;;;;;13.80;5.15;;;;;;;24.93;60.86;100849.49;1771395;80;21127;-50
2021/09/16 06:19:39;;;;;;;17.60;5.37;;;;;;;24.95;60.95;100852.76;1779944;80;23153;-49
2021/09/16 06:22:05;;;;;;;13.22;4.72;;;;;;;24.95;61.02;100845.20;1781999;80;21096;-48
2021/09/16 06:24:31;;;;;;;8.93;5.28;;;;;;;24.97;61.05;100844.86;1773890;79;20937;-50
2021/09/16 06:26:58;;;;;;;9.40;4.58;;;;;;;24.96;61.02;100837.08;1777407;79;21542;-48
2021/09/16 06:29:24;;;;;;;9.33;3.65;;;;;;;24.98;61.00;100850.67;1779502;80;21097;-46
2021/09/16 06:31:50;;;;;;;7.78;4.20;;;;;;;24.97;60.98;100847.06;1779430;80;21189;-48
2021/09/16 06:34:16;;;;;;;7.78;3.47;;;;;;;24.97;60.97;100844.86;1778818;79;21385;-46
2021/09/16 06:36:42;;;;;;;7.75;3.70;;;;;;;24.96;60.92;100846.83;1776118;79;21032;-51
2021/09/16 06:39:08;;;;;;;8.65;3.75;;;;;;;24.95;60.90;100848.58;1773033;79;20960;-51
2021/09/16 06:41:35;;;;;;;9.60;3.77;;;;;;;24.94;60.87;100844.17;1773232;80;21093;-51
2021/09/16 06:44:01;;;;;;;7.25;3.33;;;;;;;24.92;60.85;100849.25;1781132;80;21360;-51
2021/09/16 06:46:27;;;;;;;5.87;2.75;;;;;;;24.91;60.84;100849.02;1778030;79;21488;-51
2021/09/16 06:48:53;;;;;;;7.55;2.80;;;;;;;24.91;60.83;100850.41;1779587;79;21074;-49
2021/09/16 06:51:19;;;;;;;6.12;2.47;;;;;;;24.92;60.88;100854.82;1766875;79;20976;-50
2021/09/16 06:53:45;;;;;;;4.67;2.80;;;;;;;24.93;60.97;100862.02;1778534;80;21120;-49
2021/09/16 06:56:11;;;;;;;4.53;2.52;;;;;;;24.92;61.04;100852.85;1777639;80;21201;-50
2021/09/16 06:58:38;;;;;;;5.25;2.70;;;;;;;24.95;61.10;100849.98;1778149;80;21393;-47
2021/09/16 07:01:04;;;;;;;6.10;2.45;;;;;;;24.96;61.12;100855.17;1774129;80;21062;-49
2021/09/16 07:03:30;;;;;;;5.00;2.50;;;;;;;24.96;61.09;100851.00;1776565;80;21041;-51
2021/09/16 07:05:56;;;;;;;4.97;2.17;;;;;;;24.97;61.07;100849.03;1776266;79;21631;-50
2021/09/16 07:08:22;;;;;;;4.90;2.65;;;;;;;24.97;61.00;100850.42;1775883;80;21820;-52
2021/09/16 07:10:48;;;;;;;4.92;2.52;;;;;;;24.96;60.96;100859.92;1772354;79;21092;-48
2021/09/16 07:13:14;;;;;;;3.42;2.45;;;;;;;24.96;60.92;100855.75;1782517;79;21628;-49
2021/09/16 07:15:40;;;;;;;4.05;2.40;;;;;;;24.95;60.87;100858.33;1780053;80;20961;-47
2021/09/16 07:18:06;;;;;;;3.80;2.25;;;;;;;24.94;60.84;100858.09;1780615;80;21014;-46
2021/09/16 07:20:32;;;;;;;3.70;2.17;;;;;;;24.92;60.82;100860.39;1774728;79;21978;-49
2021/09/16 07:22:58;;;;;;;5.05;2.02;;;;;;;24.90;60.80;100852.98;1777521;79;20882;-48
2021/09/16 07:25:24;;;;;;;4.28;2.10;;;;;;;24.87;60.80;100864.78;1779403;79;21617;-50
2021/09/16 07:27:50;;;;;;;3.52;1.72;;;;;;;24.86;60.80;100856.22;1777469;80;21051;-50
2021/09/16 07:30:16;;;;;;;2.72;1.75;;;;;;;24.88;60.85;100871.40;1778516;80;21100;-47
2021/09/16 07:32:43;;;;;;;2.22;1.62;;;;;;;24.89;60.94;100870.83;1780131;79;23350;-50
2021/09/16 07:35:10;;;;;;;4.25;1.92;;;;;;;24.90;61.04;100867.71;1775031;80;21020;-49
2021/09/16 07:37:36;;;;;;;2.98;1.70;;;;;;;24.89;61.06;100871.64;1774599;80;21097;-47
2021/09/16 07:40:04;;;;;;;3.40;1.82;;;;;;;24.90;61.06;100867.71;1777458;80;21468;-48
2021/09/16 07:42:30;;;;;;;2.90;1.70;;;;;;;24.92;61.01;100872.34;1773276;80;21538;-46
2021/09/16 07:44:56;;;;;;;2.45;1.60;;;;;;;24.91;60.97;100867.92;1781432;80;21753;-48
2021/09/16 07:47:22;;;;;;;3.70;1.90;;;;;;;24.91;60.92;100869.31;1780109;79;20989;-48
2021/09/16 07:49:48;;;;;;;2.87;1.40;;;;;;;24.91;60.88;100871.28;1777199;79;21438;-47
2021/09/16 07:52:15;;;;;;;2.87;1.50;;;;;;;24.90;60.83;100871.06;1781875;80;21079;-48
2021/09/16 07:54:41;;;;;;;2.20;1.55;;;;;;;24.86;60.80;100865.39;1776498;80;22554;-49
2021/09/16 07:57:07;;;;;;;2.22;1.32;;;;;;;24.86;60.78;100871.52;1780016;79;21968;-49
2021/09/16 07:59:33;;;;;;;2.12;1.32;;;;;;;24.83;60.77;100866.02;1785536;78;21206;-50
2021/09/16 08:02:00;;;;;;;2.75;1.57;;;;;;;24.83;60.75;100859.06;1775688;79;21636;-46
2021/09/16 08:04:26;;;;;;;1.70;1.20;;;;;;;24.84;60.82;100866.84;1782333;79;21057;-50
2021/09/16 08:06:52;;;;;;;2.17;1.40;;;;;;;24.86;60.88;100865.96;1787031;78;21109;-47
2021/09/16 08:09:18;;;;;;;2.70;1.42;;;;;;;24.86;60.96;100865.96;1748636;81;21627;-50
2021/09/16 08:11:44;;;;;;;1.98;1.40;;;;;;;24.86;60.99;100867.35;1749939;81;21494;-47
2021/09/16 08:14:11;;;;;;;3.20;1.30;;;;;;;24.88;60.99;100862.23;1756799;81;21068;-50
2021/09/16 08:16:37;;;;;;;2.00;1.40;;;;;;;24.88;60.96;100863.05;1754582;81;21013;-47
2021/09/16 08:19:04;;;;;;;2.90;1.70;;;;;;;24.88;60.90;100864.45;1758054;80;21048;-48
2021/09/16 08:21:30;;;;;;;2.50;1.55;;;;;;;24.88;60.87;100865.02;1759229;80;21879;-50
2021/09/16 08:23:56;;;;;;;2.42;1.40;;;;;;;24.87;60.82;100864.20;1724510;81;21059;-49
2021/09/16 08:26:23;;;;;;;2.00;1.30;;;;;;;24.86;60.82;100860.39;1751641;81;21023;-48
2021/09/16 08:28:50;;;;;;;2.72;1.52;;;;;;;24.84;60.81;100852.34;1754522;81;21650;-51
2021/09/16 08:31:16;;;;;;;2.87;1.50;;;;;;;24.83;60.82;100861.84;1746434;81;21099;-46
2021/09/16 08:33:42;;;;;;;2.40;1.40;;;;;;;24.82;60.82;100853.86;1758406;81;22060;-49
2021/09/16 08:36:11;;;;;;;1.90;1.30;;;;;;;24.83;60.82;100858.25;1752844;80;20885;-48
2021/09/16 08:38:37;;;;;;;1.72;1.20;;;;;;;24.84;60.90;100859.30;1732853;81;21516;-46
2021/09/16 08:41:05;;;;;;;2.58;1.30;;;;;;;24.85;60.99;100848.98;1752973;81;21088;-49
2021/09/16 08:43:32;;;;;;;2.10;1.40;;;;;;;24.88;61.05;100852.50;1752643;81;21724;-47
2021/09/16 08:45:59;;;;;;;1.80;1.22;;;;;;;24.89;61.12;100843.00;1749564;80;21173;-47
2021/09/16 08:48:26;;;;;;;2.20;1.45;;;;;;;24.89;61.13;100844.39;1762114;80;21798;-47
2021/09/16 08:50:52;;;;;;;2.00;1.30;;;;;;;24.90;61.14;100848.80;1754951;81;21022;-47
2021/09/16 08:53:28;;;;;;;2.12;1.50;;;;;;;24.91;61.11;100844.84;1733749;81;21043;-48
2021/09/16 08:55:55;;;;;;;2.37;1.60;;;;;;;24.90;61.05;100845.45;1758121;81;21023;-48
2021/09/16 08:58:25;;;;;;;2.80;1.50;;;;;;;24.91;61.02;100840.66;1758760;80;21134;-46
2021/09/16 09:00:52;;;;;;;2.17;1.50;;;;;;;24.90;60.99;100836.28;1727314;81;21074;-47
2021/09/16 09:03:18;;;;;;;2.00;1.37;;;;;;;24.89;60.96;100836.86;1741614;81;21387;-48
2021/09/16 09:05:44;;;;;;;2.02;1.45;;;;;;;24.88;60.92;100834.41;1740252;80;21116;-48
2021/09/16 09:08:11;;;;;;;3.42;1.47;;;;;;;24.86;60.90;100830.59;1773868;78;21548;-46
2021/09/16 09:10:43;;;;;;;1.50;1.20;;;;;;;24.85;60.90;100829.51;1777715;78;21171;-47
2021/09/16 09:13:16;;;;;;;1.70;1.32;;;;;;;24.82;60.89;100829.63;1772370;79;21080;-47
2021/09/16 09:15:44;;;;;;;1.92;1.10;;;;;;;24.84;60.89;100828.70;1770879;80;21110;-46
2021/09/16 09:18:13;;;;;;;2.37;1.22;;;;;;;24.86;60.93;100830.59;1775362;80;21036;-47
2021/09/16 09:20:58;;;;;;;1.32;1.00;;;;;;;24.87;61.02;100825.81;1769438;80;21055;-46
2021/09/16 09:23:39;;;;;;;2.40;1.35;;;;;;;24.88;61.12;100829.66;1770000;79;22290;-46
2021/09/16 09:26:25;;;;;;;1.95;1.37;;;;;;;24.88;61.13;100823.28;1765282;80;21066;-48
2021/09/16 09:29:11;;;;;;;2.10;1.20;;;;;;;24.89;61.13;100823.52;1755985;80;21051;-48
2021/09/16 09:31:42;;;;;;;2.47;1.60;;;;;;;24.89;61.10;100822.94;1767936;80;21110;-49
2021/09/16 09:34:35;;;;;;;2.17;1.40;;;;;;;24.89;61.05;100823.52;1761871;79;21041;-48
2021/09/16 09:37:19;;;;;;;2.70;1.57;;;;;;;24.88;61.01;100817.13;1768657;79;22034;-50
2021/09/16 09:39:48;;;;;;;1.85;1.47;;;;;;;24.86;60.96;100817.26;1774529;80;21075;-48
2021/09/16 09:42:26;;;;;;;1.75;1.20;;;;;;;24.85;60.95;100813.66;1771986;80;21039;-48
2021/09/16 09:45:05;;;;;;;1.72;1.37;;;;;;;24.86;60.94;100821.44;1768494;80;21675;-47
2021/09/16 09:47:45;;;;;;;3.37;1.32;;;;;;;24.83;60.95;100810.94;1766677;79;21072;-47
2021/09/16 09:50:23;;;;;;;3.40;1.75;;;;;;;24.84;60.96;100812.00;1768611;79;22525;-50
2021/09/16 09:52:51;;;;;;;3.08;1.70;;;;;;;24.86;60.94;100807.52;1773105;80;21068;-49
2021/09/16 09:55:20;;;;;;;3.15;1.72;;;;;;;24.86;60.85;100808.91;1774283;79;20908;-50
2021/09/16 09:57:46;;;;;;;3.72;1.92;;;;;;;24.86;60.72;100804.16;1774291;80;21482;-49
2021/09/16 10:00:16;;;;;;;3.10;1.87;;;;;;;24.86;60.50;100797.78;1770553;80;21103;-48
2021/09/16 10:02:52;;;;;;;3.65;2.52;;;;;;;24.85;60.26;100804.47;1764599;79;21212;-49
2021/09/16 10:05:29;;;;;;;3.55;1.90;;;;;;;24.83;59.94;100797.84;1768566;80;21394;-47
2021/09/16 10:08:11;;;;;;;2.47;1.98;;;;;;;24.82;59.69;100792.64;1774075;80;21061;-46
2021/09/16 10:10:42;;;;;;;2.80;1.92;;;;;;;24.82;59.57;100790.67;1784663;80;21054;-47
2021/09/16 10:13:11;;;;;;;3.25;1.80;;;;;;;24.83;59.50;100788.67;1744645;80;20940;-49
2021/09/16 10:15:37;;;;;;;2.72;1.82;;;;;;;24.81;59.45;100786.84;1766613;80;21096;-51
2021/09/16 10:18:03;;;;;;;2.92;1.87;;;;;;;24.81;59.39;100786.27;1792078;78;21099;-49
2021/09/16 10:20:29;;;;;;;2.30;1.80;;;;;;;24.81;59.36;100781.27;1787704;80;22042;-53
2021/09/16 10:22:58;;;;;;;4.12;1.85;;;;;;;24.81;59.31;100783.48;1785027;80;20849;-49
2021/09/16 10:25:27;;;;;;;2.90;1.87;;;;;;;24.80;59.30;100783.23;1785949;80;21045;-49
2021/09/16 10:28:03;;;;;;;2.58;1.70;;;;;;;24.80;59.29;100781.03;1787852;78;21160;-48
2021/09/16 10:30:42;;;;;;;3.37;1.77;;;;;;;24.79;59.29;100773.84;1787244;79;21136;-50
2021/09/16 10:33:27;;;;;;;4.03;1.90;;;;;;;24.79;59.29;100775.23;1780844;80;21021;-50
2021/09/16 10:36:07;;;;;;;3.65;2.00;;;;;;;24.77;59.31;100772.00;1788915;78;21778;-47
2021/09/16 10:38:45;;;;;;;2.17;1.53;;;;;;;24.77;59.29;100769.22;1790152;78;21005;-51
2021/09/16 10:41:29;;;;;;;1.90;1.30;;;;;;;24.79;59.32;100764.91;1782129;78;21895;-48
2021/09/16 10:44:08;;;;;;;2.45;1.42;;;;;;;24.81;59.41;100763.19;1782129;79;21004;-49
2021/09/16 10:46:43;;;;;;;2.02;1.60;;;;;;;24.84;59.50;100766.66;1782531;78;21060;-47
2021/09/16 10:49:27;;;;;;;3.08;1.40;;;;;;;24.86;59.58;100764.38;1777991;80;21028;-48
2021/09/16 10:51:57;;;;;;;2.90;1.70;;;;;;;24.89;59.63;100764.50;1771894;80;21590;-51
2021/09/16 10:54:27;;;;;;;;;;;;;;;24.91;59.57;100770.52;1784811;78;21031;-49
2021/09/16 10:57:18;;;;;;;2.23;1.67;;;;;;;24.93;59.54;100759.05;1750807;80;20675;-50
2021/09/16 10:59:56;;;;;;;2.33;1.42;;;;;;;24.93;59.49;100754.29;1757804;80;21453;-50
2021/09/16 11:02:43;;;;;;;1.85;1.47;;;;;;;24.94;59.42;100754.53;1763592;80;37586;-48
2021/09/16 11:05:14;;;;;;;3.83;1.90;;;;;;;24.96;59.34;100751.38;1753200;80;21095;-51
2021/09/16 11:07:58;;;;;;;1.70;1.30;;;;;;;24.95;59.29;100750.56;1785030;79;21245;-48
2021/09/16 11:10:30;;;;;;;2.27;1.50;;;;;;;24.96;59.23;100745.81;1747418;81;21091;-51
2021/09/16 11:13:05;;;;;;;2.00;1.70;;;;;;;24.96;59.18;100748.59;1761449;80;21384;-50
2021/09/16 11:15:36;;;;;;;1.85;1.37;;;;;;;24.95;59.15;100740.03;1763111;80;21027;-48
2021/09/16 11:18:18;;;;;;;3.27;1.80;;;;;;;24.94;59.13;100737.02;1759164;80;21046;-48
2021/09/16 11:20:45;;;;;;;2.17;1.47;;;;;;;24.95;59.11;100740.03;1762648;80;21118;-47
2021/09/16 11:23:13;;;;;;;2.37;1.50;;;;;;;24.95;59.10;100737.25;1761465;81;21181;-47
2021/09/16 11:25:50;;;;;;;2.20;1.32;;;;;;;24.95;59.06;100734.47;1725714;82;21046;-51